Aeroboteco Virtual Airlines! Uma nuvem a frente.



 INFORMAÇÕES METEOROLÓGICAS
METAR FOR HEOW
ADDS - METARS form results

(0456 UTC 28 October 2020)
Data provider http://aviationweather.gov/metar/data/
 
Forecast for: HEOW (OWEINAT , EG)
Text: TAF HEOW 272300Z 2800/2906 01008G18KT 6000 NSC
Forecast period: 0000 UTC 28 October 2020 to 0600 UTC 29 October 2020
Forecast type: FROM: standard forecast or significant change
Winds: from the N (10 degrees) at 9 MPH (8 knots; 4.1 m/s)
gusting to 21 MPH (18 knots; 9.3 m/s)
Visibility: 4 miles (6 km)
Ceiling: unknown
Clouds: missing
Weather: no significant weather forecast for this period
Text: TEMPO 2806/2816 4000 SA
Forecast period: 0600 to 1600 UTC 28 October 2020
Forecast type: TEMPORARY: The following changes expected for less than half the time period
Visibility: 2.49 miles (4.01 km)
Ceiling: unknown
Clouds: missing
Weather: SA  (sand)

 MAPA DO AEROPORTO

 INFORMAÇÕES DA PISTA
Pista 01 Tamanho da pista 11483 ft Largura da pista 148 ft
Elevação da pista 859 ft Ranhura da pista 0 ft Proa da pista 9
Pista 19 Tamanho da pista 11483 ft Largura da pista 148 ft
Elevação da pista 856 ft Ranhura da pista 0 ft Proa da pista 189

 FREQUÊNCIAS DO AEROPORTO
Tipo GND Nome GND Frequência 121.9 MHZ
Tipo TWR Nome TWR Frequência 118.9 MHZ

 AUXÍLIOS DE NAVEGAÇÃO PRÓXIMOS AO AEROPORTO
Tipo NDB Nome Shark El Oweinat Frequência 301 KHZ